FDB31C OPKC-OMDB
Flight info
| Callsign | FDB31C |
|---|---|
| Flight time | N/A |
| Altitude | 32000 |
| Route | MELOM A454 PASOV B540 KUPMA/N0401F240 B540 MIVEK P574 IMPED |
| Aircraft | B738/M-SDE2E3FGHIRWXY/LB1 |
Departure
| Time | 2026-05-08 13:26 |
|---|---|
| Airport | Jinnah International Airport (OPKC) |
Arrival
| Time | N/A |
|---|---|
| Airport | Dubai International Airport (OMDB) |
| Time | Latitude | Longitude | Altitude | Speed | Heading |
|---|---|---|---|---|---|
| 2026-05-08 13:22 | 24.90728 | 67.17452 | 102 ft | 0 kts | 30° |
| 2026-05-08 13:24 | 24.90735 | 67.17456 | 102 ft | 4 kts | 29° |
| 2026-05-08 13:24 | 24.90776 | 67.17480 | 103 ft | 8 kts | 27° |
| 2026-05-08 13:24 | 24.90822 | 67.17486 | 105 ft | 8 kts | 347° |
| 2026-05-08 13:24 | 24.90869 | 67.17456 | 106 ft | 5 kts | 292° |
| 2026-05-08 13:25 | 24.90851 | 67.17420 | 105 ft | 7 kts | 243° |
| 2026-05-08 13:25 | 24.90849 | 67.17411 | 106 ft | 1 kts | 258° |
| 2026-05-08 13:25 | 24.90846 | 67.17377 | 106 ft | 8 kts | 261° |
| 2026-05-08 13:25 | 24.90826 | 67.17286 | 105 ft | 19 kts | 256° |
| 2026-05-08 13:26 | 24.90731 | 67.16908 | 106 ft | 86 kts | 254° |
| 2026-05-08 13:26 | 24.90514 | 67.16054 | 103 ft | 146 kts | 255° |
| 2026-05-08 13:26 | 24.90215 | 67.14826 | 350 ft | 176 kts | 250° |
| 2026-05-08 13:26 | 24.89794 | 67.13551 | 1093 ft | 180 kts | 238° |
| 2026-05-08 13:27 | 24.89036 | 67.12367 | 1484 ft | 193 kts | 226° |
| 2026-05-08 13:27 | 24.88140 | 67.11287 | 2231 ft | 195 kts | 226° |
| 2026-05-08 13:27 | 24.87139 | 67.10122 | 2514 ft | 223 kts | 226° |
| 2026-05-08 13:27 | 24.86035 | 67.08849 | 3086 ft | 236 kts | 226° |
| 2026-05-08 13:28 | 24.84879 | 67.07523 | 3688 ft | 245 kts | 226° |
| 2026-05-08 13:28 | 24.83674 | 67.06145 | 4311 ft | 253 kts | 225° |
| 2026-05-08 13:28 | 24.82431 | 67.04728 | 4951 ft | 260 kts | 226° |
| 2026-05-08 13:28 | 24.81170 | 67.03291 | 5670 ft | 264 kts | 226° |
| 2026-05-08 13:29 | 24.79864 | 67.01804 | 6042 ft | 283 kts | 226° |
| 2026-05-08 13:29 | 24.78601 | 67.00116 | 6595 ft | 290 kts | 244° |
| 2026-05-08 13:29 | 24.78092 | 66.97998 | 7318 ft | 288 kts | 270° |
| 2026-05-08 13:29 | 24.78180 | 66.96309 | 7863 ft | 289 kts | 277° |
| 2026-05-08 13:33 | 24.78417 | 66.94196 | 8517 ft | 293 kts | 278° |
| 2026-05-08 13:33 | 24.78689 | 66.91963 | 9234 ft | 296 kts | 278° |
| 2026-05-08 13:33 | 24.78955 | 66.89707 | 9932 ft | 299 kts | 278° |
| 2026-05-08 13:34 | 24.79211 | 66.87421 | 10577 ft | 303 kts | 278° |
| 2026-05-08 13:34 | 24.79460 | 66.85105 | 11230 ft | 306 kts | 278° |
| 2026-05-08 13:34 | 24.79709 | 66.82769 | 11905 ft | 309 kts | 279° |
| 2026-05-08 13:34 | 24.80156 | 66.80455 | 12546 ft | 310 kts | 296° |
| 2026-05-08 13:35 | 24.81318 | 66.78529 | 13205 ft | 307 kts | 316° |
| 2026-05-08 13:35 | 24.82831 | 66.76877 | 13897 ft | 307 kts | 319° |
| 2026-05-08 13:35 | 24.84394 | 66.75254 | 14486 ft | 311 kts | 319° |
| 2026-05-08 13:35 | 24.85977 | 66.73622 | 15104 ft | 313 kts | 320° |
| 2026-05-08 13:36 | 24.87571 | 66.71971 | 15739 ft | 316 kts | 319° |
| 2026-05-08 13:36 | 24.89171 | 66.70300 | 16360 ft | 318 kts | 319° |
| 2026-05-08 13:36 | 24.90781 | 66.68610 | 16980 ft | 321 kts | 319° |
| 2026-05-08 13:36 | 24.92401 | 66.66904 | 17589 ft | 324 kts | 318° |
| 2026-05-08 13:37 | 24.94035 | 66.65177 | 18176 ft | 327 kts | 318° |
| 2026-05-08 13:37 | 24.95660 | 66.63458 | 18712 ft | 329 kts | 318° |
| 2026-05-08 13:37 | 24.97312 | 66.61709 | 19285 ft | 330 kts | 318° |
| 2026-05-08 13:37 | 24.98971 | 66.59951 | 19848 ft | 332 kts | 318° |
| 2026-05-08 13:38 | 25.00641 | 66.58181 | 20404 ft | 334 kts | 318° |
| 2026-05-08 13:38 | 25.02317 | 66.56404 | 20950 ft | 336 kts | 318° |
| 2026-05-08 13:38 | 25.04006 | 66.54613 | 21489 ft | 338 kts | 317° |
| 2026-05-08 13:38 | 25.05563 | 66.52660 | 21983 ft | 343 kts | 304° |
| 2026-05-08 13:39 | 25.06514 | 66.50231 | 22505 ft | 349 kts | 288° |
| 2026-05-08 13:39 | 25.07135 | 66.47636 | 23052 ft | 351 kts | 286° |
| 2026-05-08 13:39 | 25.07697 | 66.45043 | 23521 ft | 354 kts | 286° |
| 2026-05-08 13:39 | 25.08259 | 66.42397 | 23937 ft | 356 kts | 286° |
| 2026-05-08 13:40 | 25.08825 | 66.39742 | 24384 ft | 357 kts | 286° |
| 2026-05-08 13:40 | 25.09399 | 66.37073 | 24822 ft | 358 kts | 286° |
| 2026-05-08 13:40 | 25.09980 | 66.34398 | 25242 ft | 360 kts | 287° |
| 2026-05-08 13:40 | 25.10569 | 66.31709 | 25651 ft | 361 kts | 287° |
| 2026-05-08 13:41 | 25.11162 | 66.29010 | 26061 ft | 363 kts | 287° |
| 2026-05-08 13:41 | 25.11760 | 66.26297 | 26504 ft | 363 kts | 287° |
| 2026-05-08 13:41 | 25.12354 | 66.23600 | 27052 ft | 360 kts | 287° |
| 2026-05-08 13:41 | 25.12936 | 66.20961 | 27612 ft | 357 kts | 287° |
| 2026-05-08 13:42 | 25.13521 | 66.18306 | 28129 ft | 355 kts | 287° |
| 2026-05-08 13:42 | 25.14104 | 66.15660 | 28604 ft | 354 kts | 287° |
| 2026-05-08 13:42 | 25.14685 | 66.13021 | 29064 ft | 354 kts | 287° |
| 2026-05-08 13:42 | 25.15264 | 66.10399 | 29092 ft | 366 kts | 287° |
| 2026-05-08 13:43 | 25.16497 | 66.04807 | 29243 ft | 384 kts | 287° |
| 2026-05-08 13:43 | 25.17777 | 65.98976 | 29366 ft | 402 kts | 286° |
| 2026-05-08 13:44 | 25.19116 | 65.92856 | 29474 ft | 418 kts | 286° |
| 2026-05-08 13:44 | 25.20499 | 65.86511 | 29562 ft | 432 kts | 286° |